Sachse, TX (75048)

12:58 PM CDT on September 29, 2016 (GMT -0500)
Park Lake Estates | | Change Station

Elev 505 ft 32.96 °N, 96.59 °W | Updated 32 seconds ago

Clear
Clear
74.8 °F
Feels Like 78 °F
N
2.0
Wind Variable Wind from ESE

Today
High -- | Low -- °F
--% Chance of Precip.
Yesterday
High -- | Low -- °F
Precip. -- in
Pressure 30.27 in
Visibility 10.0 miles
Clouds Clear
Heat Index 78 °F
Dew Point 52 °F
Humidity 45%
Rainfall 0.00 in
Snow Depth Not available.
7:19 AM 7:12 PM
Waning Crescent, 2% visible
METAR KF46 291735Z AUTO 35009G15KT 290V020 10SM CLR 22/11 A3027 RMK AO2 T02220108
Pressure 30.27 in
Visibility 10.0 miles
Clouds Clear
Heat Index 78 °F
Dew Point 52 °F
Humidity 45%
Rainfall 0.00 in
Snow Depth Not available.
7:19 AM 7:12 PM
Waning Crescent, 2% visible
METAR KF46 291735Z AUTO 35009G15KT 290V020 10SM CLR 22/11 A3027 RMK AO2 T02220108

10-Day Weather Forecast

Almanac

Astronomy

Sep. 29, 2016 Rise Set
Actual Time
Civil Twilight
Nautical Twilight
Astronomical Twilight
Moon
Length of Visible Light
Length of Day
Tomorrow will be .
, % of the Moon is Illuminated

Today's Extremes

State Highs State Lows

Community

WunderPhotos

Upload Photos

1,942,528 photos uploaded!

WunderBlog® & News

Nearby

Air Quality

  Air Quality AQ Index Pollutant
Not available.

Snow Depth

Station Depth Elevation

Earthquake Activity

City Distance Mag. Time & Date
Minimum magnitude displayed is 2.5.

Coastal Water Temperatures

Place Temperature

Stations

Nearby Weather Stations

Station Location Temp. Windchill Dew Point Humidity Wind Precip. Elev Updated Type
                   

Watches & Warnings

There are currently no watches in effect.